Time;durP1;ratioP1;P1;durP2;ratioP2;P2;SDS_P1;SDS_P2;PMS_P1;PMS_P2;Temp;Humidity;BMP_temperature;BMP_pressure;BME280_temperature;BME280_humidity;BME280_pressure;Samples;Min_cycle;Max_cycle;Signal;HPM_P1;HPM_P2
2023/01/06 00:03:53;;;;;;;2.92;1.42;;;;;;;;;;10351486;28;20038;-75
2023/01/06 00:08:56;;;;;;;4.18;1.33;;;;;;;;;;10360552;28;20050;-76
2023/01/06 00:13:59;;;;;;;1.55;1.13;;;;;;;;;;10348592;28;20056;-76
2023/01/06 00:19:03;;;;;;;2.40;1.33;;;;;;;;;;10353170;28;20046;-76
2023/01/06 00:24:06;;;;;;;2.85;1.25;;;;;;;;;;10344792;28;20047;-76
2023/01/06 00:29:09;;;;;;;3.30;1.30;;;;;;;;;;10354073;28;20030;-76
2023/01/06 00:34:13;;;;;;;2.10;1.20;;;;;;;;;;10352710;28;20610;-76
2023/01/06 00:39:16;;;;;;;;;;;;;;;;;;10357265;28;20216;-76
2023/01/06 00:44:18;;;;;;;3.90;1.75;;;;;;;;;;10353369;28;19983;-76
2023/01/06 00:49:22;;;;;;;5.82;2.45;;;;;;;;;;10358533;28;20035;-74
2023/01/06 00:54:25;;;;;;;;;;;;;;;;;;10359925;28;20046;-74
2023/01/06 00:59:27;;;;;;;1.63;1.08;;;;;;;;;;10360457;28;20023;-76
2023/01/06 01:04:31;;;;;;;2.53;1.13;;;;;;;;;;10355462;28;20042;-76
2023/01/06 01:09:34;;;;;;;2.08;1.23;;;;;;;;;;10354233;28;21402;-76
2023/01/06 01:14:37;;;;;;;1.17;0.93;;;;;;;;;;10355484;28;20050;-76
2023/01/06 01:19:41;;;;;;;3.53;1.75;;;;;;;;;;10355629;28;20092;-76
2023/01/06 01:24:44;;;;;;;2.33;1.60;;;;;;;;;;10359104;28;20042;-75
2023/01/06 01:29:46;;;;;;;2.97;1.73;;;;;;;;;;10357197;28;20045;-75
2023/01/06 01:34:50;;;;;;;1.58;0.98;;;;;;;;;;10353684;28;20244;-75
2023/01/06 01:39:53;;;;;;;1.77;1.30;;;;;;;;;;10354394;28;20214;-76
2023/01/06 01:45:00;;;;;;;2.83;1.50;;;;;;;;;;10351070;28;20519;-74
2023/01/06 01:50:05;;;;;;;4.05;1.90;;;;;;;;;;10356383;28;20041;-76
2023/01/06 01:55:09;;;;;;;2.38;1.55;;;;;;;;;;10348877;28;20041;-75
2023/01/06 02:00:11;;;;;;;5.93;3.83;;;;;;;;;;10348871;28;20049;-75
2023/01/06 02:05:18;;;;;;;6.13;2.65;;;;;;;;;;10354992;28;20042;-75
2023/01/06 02:10:21;;;;;;;7.50;4.70;;;;;;;;;;10353472;28;20125;-75
2023/01/06 02:15:25;;;;;;;2.97;2.30;;;;;;;;;;10352974;28;20045;-76
2023/01/06 02:20:40;;;;;;;2.00;1.13;;;;;;;;;;10356452;28;20049;-75
2023/01/06 02:25:59;;;;;;;2.67;1.08;;;;;;;;;;10352864;28;20046;-76
2023/01/06 02:31:18;;;;;;;2.92;1.27;;;;;;;;;;10351251;28;20054;-75
2023/01/06 02:36:28;;;;;;;1.88;1.13;;;;;;;;;;10355794;28;20041;-75
2023/01/06 02:41:33;;;;;;;3.38;1.30;;;;;;;;;;10346978;28;20045;-74
2023/01/06 02:47:01;;;;;;;1.77;1.10;;;;;;;;;;10351078;28;20042;-74
2023/01/06 02:52:09;;;;;;;2.97;1.30;;;;;;;;;;10350379;28;20041;-75
2023/01/06 02:57:16;;;;;;;4.85;1.63;;;;;;;;;;10353611;28;20073;-75
2023/01/06 03:02:20;;;;;;;2.92;1.20;;;;;;;;;;10348829;28;20046;-75
2023/01/06 03:07:23;;;;;;;2.05;1.30;;;;;;;;;;10346359;28;20403;-76
2023/01/06 03:12:28;;;;;;;2.42;1.40;;;;;;;;;;10351157;28;20049;-76
2023/01/06 03:17:32;;;;;;;4.15;1.73;;;;;;;;;;10355596;28;20491;-75
2023/01/06 03:22:37;;;;;;;2.95;1.58;;;;;;;;;;10355147;28;20038;-75
2023/01/06 03:27:40;;;;;;;2.95;1.23;;;;;;;;;;10352219;28;20088;-76
2023/01/06 03:32:47;;;;;;;0.95;0.85;;;;;;;;;;10353992;28;20403;-75
2023/01/06 03:37:53;;;;;;;2.60;1.35;;;;;;;;;;10352698;28;20054;-76
2023/01/06 03:43:15;;;;;;;2.47;1.30;;;;;;;;;;10354169;28;20188;-76
2023/01/06 03:48:22;;;;;;;1.55;1.27;;;;;;;;;;10347211;28;20053;-75
2023/01/06 03:53:29;;;;;;;0.52;0.50;;;;;;;;;;10349776;28;20768;-75
2023/01/06 03:58:32;;;;;;;1.13;1.00;;;;;;;;;;10355562;28;20476;-75
2023/01/06 04:03:36;;;;;;;1.35;1.20;;;;;;;;;;10354171;28;20373;-75
2023/01/06 04:08:39;;;;;;;1.13;0.90;;;;;;;;;;10355886;28;20050;-74
2023/01/06 04:13:42;;;;;;;2.15;0.90;;;;;;;;;;10352562;28;20050;-74
2023/01/06 04:18:46;;;;;;;1.90;1.15;;;;;;;;;;10364118;28;20038;-75
2023/01/06 04:23:49;;;;;;;1.02;0.80;;;;;;;;;;10358302;28;20046;-75
2023/01/06 04:28:52;;;;;;;1.25;0.90;;;;;;;;;;10367983;28;20050;-75
2023/01/06 04:33:56;;;;;;;2.08;1.00;;;;;;;;;;10356893;28;20511;-77
2023/01/06 04:38:58;;;;;;;1.45;1.17;;;;;;;;;;10364009;28;20121;-75
2023/01/06 04:44:01;;;;;;;1.95;0.82;;;;;;;;;;10355538;28;20385;-75
2023/01/06 04:49:05;;;;;;;1.77;0.80;;;;;;;;;;10351648;28;20042;-76
2023/01/06 04:54:08;;;;;;;1.75;1.05;;;;;;;;;;10360677;28;20092;-76
2023/01/06 04:59:10;;;;;;;0.68;0.60;;;;;;;;;;10353264;28;20167;-75
2023/01/06 05:04:14;;;;;;;0.80;0.77;;;;;;;;;;10356881;28;20042;-74
2023/01/06 05:09:17;;;;;;;1.45;0.95;;;;;;;;;;10359437;28;20056;-76
2023/01/06 05:14:20;;;;;;;0.90;0.45;;;;;;;;;;10355728;28;21668;-74
2023/01/06 05:19:24;;;;;;;1.58;1.00;;;;;;;;;;10356142;28;20051;-75
2023/01/06 05:24:27;;;;;;;1.30;1.00;;;;;;;;;;10351252;28;20045;-74
2023/01/06 05:29:29;;;;;;;0.85;0.82;;;;;;;;;;10356138;28;20542;-74
2023/01/06 05:34:33;;;;;;;1.30;0.70;;;;;;;;;;10357155;28;20120;-74
2023/01/06 05:39:36;;;;;;;1.15;1.05;;;;;;;;;;10357050;28;20499;-74
2023/01/06 05:44:38;;;;;;;0.65;0.55;;;;;;;;;;10350497;28;20566;-74
2023/01/06 05:49:42;;;;;;;1.90;1.40;;;;;;;;;;10354415;28;20045;-75
2023/01/06 05:54:45;;;;;;;4.13;1.08;;;;;;;;;;10355773;28;20107;-74
2023/01/06 05:59:48;;;;;;;1.65;1.02;;;;;;;;;;10352274;28;20045;-74
2023/01/06 06:04:52;;;;;;;0.15;0.13;;;;;;;;;;10358830;28;20046;-74
2023/01/06 06:09:54;;;;;;;;;;;;;;;;;;10352535;28;20164;-75
2023/01/06 06:14:57;;;;;;;1.70;0.50;;;;;;;;;;10355196;28;19926;-75
2023/01/06 06:20:02;;;;;;;2.53;1.20;;;;;;;;;;10353984;28;20416;-75
2023/01/06 06:25:05;;;;;;;0.52;0.38;;;;;;;;;;10354321;28;20053;-76
2023/01/06 06:30:08;;;;;;;1.30;0.93;;;;;;;;;;10353608;28;20041;-74
2023/01/06 06:35:11;;;;;;;1.00;0.60;;;;;;;;;;10355602;28;20451;-74
2023/01/06 06:40:14;;;;;;;0.93;0.85;;;;;;;;;;10356363;28;20468;-75
2023/01/06 06:45:17;;;;;;;0.60;0.52;;;;;;;;;;10346923;28;20096;-76
2023/01/06 06:50:21;;;;;;;1.38;0.88;;;;;;;;;;10362533;28;20038;-75
2023/01/06 06:55:23;;;;;;;1.48;0.90;;;;;;;;;;10353016;28;20561;-74
2023/01/06 07:00:26;;;;;;;0.43;0.40;;;;;;;;;;10352590;28;20045;-74
2023/01/06 07:05:30;;;;;;;2.33;0.70;;;;;;;;;;10348398;28;20510;-74
2023/01/06 07:10:33;;;;;;;1.42;0.95;;;;;;;;;;10345534;28;20046;-74
2023/01/06 07:15:36;;;;;;;1.73;0.90;;;;;;;;;;10354127;28;20050;-75
2023/01/06 07:20:40;;;;;;;0.57;0.47;;;;;;;;;;10353781;28;20124;-75
2023/01/06 07:25:42;;;;;;;0.10;0.10;;;;;;;;;;10348095;28;20050;-75
2023/01/06 07:30:45;;;;;;;1.00;0.60;;;;;;;;;;10346451;28;20077;-76
2023/01/06 07:35:52;;;;;;;2.85;0.77;;;;;;;;;;10345495;28;20046;-74
2023/01/06 07:40:58;;;;;;;1.45;0.80;;;;;;;;;;10352312;28;20050;-75
2023/01/06 07:46:01;;;;;;;1.25;0.60;;;;;;;;;;10355729;28;20107;-75
2023/01/06 07:51:05;;;;;;;0.75;0.63;;;;;;;;;;10358513;28;20053;-76
2023/01/06 07:56:08;;;;;;;1.42;1.10;;;;;;;;;;10365902;28;20133;-77
2023/01/06 08:01:11;;;;;;;3.60;1.13;;;;;;;;;;10365193;28;20536;-74
2023/01/06 08:06:15;;;;;;;5.35;3.65;;;;;;;;;;10372503;28;20049;-75
2023/01/06 08:11:17;;;;;;;16.65;11.25;;;;;;;;;;10370910;28;20099;-75
2023/01/06 08:16:20;;;;;;;3.60;2.60;;;;;;;;;;10368016;28;20041;-74
2023/01/06 08:21:24;;;;;;;2.75;1.75;;;;;;;;;;10353564;28;20085;-74
2023/01/06 08:26:26;;;;;;;;;;;;;;;;;;10358818;28;20042;-75
2023/01/06 08:31:29;;;;;;;1.60;1.50;;;;;;;;;;10359628;28;19922;-75
2023/01/06 08:36:33;;;;;;;3.28;1.20;;;;;;;;;;10356295;28;20047;-75
2023/01/06 08:41:36;;;;;;;1.10;1.10;;;;;;;;;;10356529;28;20133;-76
2023/01/06 08:46:38;;;;;;;4.03;2.20;;;;;;;;;;10352950;28;20116;-76
2023/01/06 08:51:42;;;;;;;1.20;1.10;;;;;;;;;;10365806;28;20494;-75
2023/01/06 08:56:45;;;;;;;0.82;0.82;;;;;;;;;;10354418;28;20037;-75
2023/01/06 09:01:47;;;;;;;1.90;1.10;;;;;;;;;;10356366;28;20054;-75
2023/01/06 09:06:51;;;;;;;1.20;1.10;;;;;;;;;;10348454;28;20045;-76
2023/01/06 09:11:54;;;;;;;1.88;1.20;;;;;;;;;;10355127;28;20527;-76
2023/01/06 09:16:56;;;;;;;1.88;1.10;;;;;;;;;;10344141;28;20049;-77
2023/01/06 09:22:01;;;;;;;1.40;1.30;;;;;;;;;;10351751;28;20041;-76
2023/01/06 09:27:04;;;;;;;1.63;1.20;;;;;;;;;;10352143;28;20037;-77
2023/01/06 09:32:07;;;;;;;1.77;1.30;;;;;;;;;;10358210;28;20400;-84
2023/01/06 09:37:11;;;;;;;2.17;1.50;;;;;;;;;;10356336;28;20041;-83
2023/01/06 09:42:20;;;;;;;1.30;1.20;;;;;;;;;;10354630;28;20046;-84
2023/01/06 09:47:25;;;;;;;1.67;1.45;;;;;;;;;;10353877;28;20057;-83
2023/01/06 09:52:33;;;;;;;1.30;1.20;;;;;;;;;;10359481;28;20042;-83
2023/01/06 09:57:37;;;;;;;1.83;1.30;;;;;;;;;;10358589;28;20200;-84
2023/01/06 10:02:41;;;;;;;1.30;1.20;;;;;;;;;;10353050;28;20053;-83
2023/01/06 10:07:46;;;;;;;1.10;1.10;;;;;;;;;;10350294;28;20225;-83
2023/01/06 10:12:54;;;;;;;1.27;1.20;;;;;;;;;;10350084;28;20053;-83
2023/01/06 10:18:13;;;;;;;1.60;1.50;;;;;;;;;;10350018;28;20051;-82
2023/01/06 10:23:25;;;;;;;1.50;1.40;;;;;;;;;;10358158;28;20050;-82
2023/01/06 10:28:29;;;;;;;1.40;1.30;;;;;;;;;;10353315;28;20045;-82
2023/01/06 10:33:33;;;;;;;1.67;1.58;;;;;;;;;;10351427;28;20076;-82
2023/01/06 10:38:39;;;;;;;1.58;1.48;;;;;;;;;;10347705;28;20077;-82
2023/01/06 10:43:42;;;;;;;1.77;1.67;;;;;;;;;;10353053;28;20107;-82
2023/01/06 10:48:45;;;;;;;1.70;1.60;;;;;;;;;;10351538;28;20050;-83
2023/01/06 10:53:50;;;;;;;2.67;1.65;;;;;;;;;;10354950;28;20060;-83
2023/01/06 10:58:55;;;;;;;2.60;2.00;;;;;;;;;;10352989;28;20042;-83
2023/01/06 11:04:10;;;;;;;1.90;1.80;;;;;;;;;;10348492;28;20110;-83
2023/01/06 11:09:25;;;;;;;1.63;1.52;;;;;;;;;;10353179;28;20070;-84
2023/01/06 11:14:30;;;;;;;1.48;1.38;;;;;;;;;;10354409;28;20077;-83
2023/01/06 11:19:34;;;;;;;2.00;1.90;;;;;;;;;;10346559;28;20045;-83
2023/01/06 11:24:48;;;;;;;1.90;1.80;;;;;;;;;;10349035;28;20038;-84
2023/01/06 11:29:51;;;;;;;2.15;1.95;;;;;;;;;;10348613;28;20042;-84
2023/01/06 11:34:54;;;;;;;2.05;1.95;;;;;;;;;;10340674;28;20053;-84
2023/01/06 11:39:58;;;;;;;2.78;2.25;;;;;;;;;;10352885;28;20050;-83
2023/01/06 11:45:27;;;;;;;3.20;2.72;;;;;;;;;;10358652;28;20069;-81
2023/01/06 11:50:29;;;;;;;3.22;2.90;;;;;;;;;;10346565;28;20046;-84
2023/01/06 11:55:33;;;;;;;3.35;2.90;;;;;;;;;;10353737;28;20046;-83
2023/01/06 12:00:41;;;;;;;2.58;2.38;;;;;;;;;;10349945;28;20047;-83
2023/01/06 12:05:47;;;;;;;3.97;3.30;;;;;;;;;;10348875;28;20120;-83
2023/01/06 12:10:55;;;;;;;3.00;2.53;;;;;;;;;;10349858;28;20073;-84
2023/01/06 12:16:01;;;;;;;2.20;1.98;;;;;;;;;;10350619;28;20476;-83
2023/01/06 12:21:04;;;;;;;2.85;2.50;;;;;;;;;;10349696;28;20049;-83
2023/01/06 12:26:12;;;;;;;3.90;2.40;;;;;;;;;;10353304;28;20488;-83
2023/01/06 12:31:16;;;;;;;3.65;2.30;;;;;;;;;;10357683;28;20050;-83
2023/01/06 12:42:07;;;;;;;2.77;2.30;;;;;;;;;;10361681;28;20467;-83
2023/01/06 12:47:13;;;;;;;2.20;2.00;;;;;;;;;;10353347;28;20049;-83
2023/01/06 12:52:17;;;;;;;2.97;2.20;;;;;;;;;;10375336;28;20042;-84
2023/01/06 12:57:29;;;;;;;1.83;1.70;;;;;;;;;;10357376;28;20514;-83
2023/01/06 13:02:41;;;;;;;1.50;1.35;;;;;;;;;;10352399;28;20049;-85
2023/01/06 13:07:47;;;;;;;1.25;1.20;;;;;;;;;;10358022;28;20050;-85
2023/01/06 13:12:55;;;;;;;1.23;1.13;;;;;;;;;;10356863;28;20052;-85
2023/01/06 13:18:04;;;;;;;1.40;1.30;;;;;;;;;;10359040;28;20042;-85
2023/01/06 13:23:16;;;;;;;1.52;1.42;;;;;;;;;;10348879;28;20066;-83
2023/01/06 13:28:26;;;;;;;0.95;0.90;;;;;;;;;;10354247;28;20050;-84
2023/01/06 13:33:36;;;;;;;1.77;0.90;;;;;;;;;;10361408;28;20585;-85
2023/01/06 13:38:51;;;;;;;1.13;1.02;;;;;;;;;;10353735;28;20054;-83
2023/01/06 13:43:56;;;;;;;0.80;0.60;;;;;;;;;;10353206;28;20072;-84
2023/01/06 13:49:01;;;;;;;1.10;0.75;;;;;;;;;;10361952;28;20054;-83
2023/01/06 13:54:03;;;;;;;1.33;0.82;;;;;;;;;;10351069;28;20034;-83
2023/01/06 13:59:21;;;;;;;1.30;0.60;;;;;;;;;;10358776;28;20425;-83
2023/01/06 14:04:57;;;;;;;0.60;0.60;;;;;;;;;;10351757;28;20344;-83
2023/01/06 14:10:00;;;;;;;0.75;0.47;;;;;;;;;;10346801;28;20045;-83
2023/01/06 14:15:05;;;;;;;0.87;0.63;;;;;;;;;;10359115;28;20123;-83
2023/01/06 14:20:27;;;;;;;0.55;0.40;;;;;;;;;;10349506;28;20352;-84
2023/01/06 14:25:33;;;;;;;0.75;0.70;;;;;;;;;;10350382;28;20133;-83
2023/01/06 14:30:39;;;;;;;0.50;0.50;;;;;;;;;;10368411;28;20132;-85
2023/01/06 14:35:43;;;;;;;0.40;0.40;;;;;;;;;;10356648;28;20558;-83
2023/01/06 14:40:49;;;;;;;2.17;0.90;;;;;;;;;;10354396;28;20480;-82
2023/01/06 14:45:53;;;;;;;0.95;0.45;;;;;;;;;;10345887;28;20060;-84
2023/01/06 14:50:57;;;;;;;4.22;0.80;;;;;;;;;;10348601;28;20141;-83
2023/01/06 14:56:00;;;;;;;;;;;;;;;;;;10355912;28;20053;-84
2023/01/06 15:01:04;;;;;;;0.65;0.47;;;;;;;;;;10347575;28;19921;-84
2023/01/06 15:06:11;;;;;;;1.20;0.70;;;;;;;;;;10350863;28;20078;-82
2023/01/06 15:11:25;;;;;;;0.30;0.30;;;;;;;;;;10348518;28;20057;-83
2023/01/06 15:16:35;;;;;;;0.90;0.60;;;;;;;;;;10350583;28;20045;-83
2023/01/06 15:21:38;;;;;;;1.25;0.50;;;;;;;;;;10356248;28;20475;-83
2023/01/06 15:26:41;;;;;;;0.88;0.80;;;;;;;;;;10361776;28;20484;-81
2023/01/06 15:31:45;;;;;;;1.92;0.80;;;;;;;;;;10346712;28;20038;-82
2023/01/06 15:36:49;;;;;;;0.90;0.65;;;;;;;;;;10352780;28;20034;-82
2023/01/06 15:41:52;;;;;;;0.30;0.30;;;;;;;;;;10346088;28;20065;-81
2023/01/06 15:46:58;;;;;;;0.70;0.47;;;;;;;;;;10360493;28;20042;-84
2023/01/06 15:52:03;;;;;;;1.90;0.60;;;;;;;;;;10357511;28;20060;-82
2023/01/06 15:57:11;;;;;;;3.55;0.55;;;;;;;;;;10360276;28;20038;-82
2023/01/06 16:02:21;;;;;;;2.10;1.00;;;;;;;;;;10353914;28;20164;-82
2023/01/06 16:07:33;;;;;;;0.60;0.40;;;;;;;;;;10356032;28;20129;-83
2023/01/06 16:12:36;;;;;;;1.13;0.80;;;;;;;;;;10360463;28;20129;-83
2023/01/06 16:17:44;;;;;;;1.85;0.70;;;;;;;;;;10367649;28;20050;-76
2023/01/06 16:22:48;;;;;;;2.20;1.00;;;;;;;;;;10355977;28;20050;-76
2023/01/06 16:27:52;;;;;;;0.77;0.63;;;;;;;;;;10364770;28;20427;-76
2023/01/06 16:32:58;;;;;;;1.35;0.90;;;;;;;;;;10350590;28;20045;-75
2023/01/06 16:38:02;;;;;;;1.55;0.93;;;;;;;;;;10362657;28;20529;-75
2023/01/06 16:43:05;;;;;;;1.30;0.90;;;;;;;;;;10356516;28;20495;-76
2023/01/06 16:48:13;;;;;;;1.17;0.75;;;;;;;;;;10363839;28;20045;-76
2023/01/06 16:53:17;;;;;;;2.08;0.90;;;;;;;;;;10350605;28;20108;-75
2023/01/06 16:58:20;;;;;;;2.60;1.00;;;;;;;;;;10353674;28;20101;-77
2023/01/06 17:03:25;;;;;;;1.50;0.80;;;;;;;;;;10347480;28;20038;-75
2023/01/06 17:08:29;;;;;;;0.68;0.68;;;;;;;;;;10351936;28;20062;-76
2023/01/06 17:13:34;;;;;;;1.40;0.90;;;;;;;;;;10347384;28;20321;-75
2023/01/06 17:18:44;;;;;;;1.73;1.20;;;;;;;;;;10350872;28;20049;-75
2023/01/06 17:23:48;;;;;;;1.90;1.30;;;;;;;;;;10350812;28;20049;-75
2023/01/06 17:28:52;;;;;;;2.13;1.35;;;;;;;;;;10351501;28;20050;-76
2023/01/06 17:33:57;;;;;;;1.15;1.00;;;;;;;;;;10343895;28;20534;-75
2023/01/06 17:38:59;;;;;;;3.00;1.48;;;;;;;;;;10351373;28;20046;-75
2023/01/06 17:44:02;;;;;;;3.20;1.50;;;;;;;;;;10353991;28;20157;-76
2023/01/06 17:49:26;;;;;;;2.83;1.50;;;;;;;;;;10356171;28;20034;-74
2023/01/06 17:59:49;;;;;;;0.98;0.90;;;;;;;;;;10353712;28;20455;-77
2023/01/06 18:04:53;;;;;;;1.87;1.10;;;;;;;;;;10354919;28;20072;-75
2023/01/06 18:09:56;;;;;;;;;;;;;;;;;;10357849;28;20316;-75
2023/01/06 18:14:58;;;;;;;2.55;1.40;;;;;;;;;;10362734;28;20111;-76
2023/01/06 18:20:02;;;;;;;4.10;1.90;;;;;;;;;;10353959;28;20065;-75
2023/01/06 18:25:08;;;;;;;1.17;0.85;;;;;;;;;;10354523;28;20388;-75
2023/01/06 18:30:19;;;;;;;7.00;2.20;;;;;;;;;;10346503;28;20054;-76
2023/01/06 18:35:26;;;;;;;3.00;1.70;;;;;;;;;;10355089;28;20117;-75
2023/01/06 18:40:30;;;;;;;4.35;2.08;;;;;;;;;;10355203;28;20053;-75
2023/01/06 18:45:34;;;;;;;1.48;1.15;;;;;;;;;;10353238;28;20097;-75
2023/01/06 18:50:40;;;;;;;4.72;2.70;;;;;;;;;;10363709;28;20045;-75
2023/01/06 18:55:44;;;;;;;3.15;1.95;;;;;;;;;;10361514;28;20057;-75
2023/01/06 19:00:48;;;;;;;7.15;3.10;;;;;;;;;;10358745;28;20041;-75
2023/01/06 19:05:53;;;;;;;2.55;1.92;;;;;;;;;;10351603;28;20108;-77
2023/01/06 19:10:56;;;;;;;3.35;2.05;;;;;;;;;;10359499;28;20448;-75
2023/01/06 19:16:01;;;;;;;2.97;1.10;;;;;;;;;;10364532;28;20061;-76
2023/01/06 19:21:05;;;;;;;3.80;1.80;;;;;;;;;;10371337;28;20046;-76
2023/01/06 19:26:08;;;;;;;;;;;;;;;;;;10384511;28;20045;-75
2023/01/06 19:31:15;;;;;;;5.00;2.28;;;;;;;;;;10367305;28;20374;-76
2023/01/06 19:36:31;;;;;;;3.75;1.70;;;;;;;;;;10367462;28;20069;-75
2023/01/06 19:41:34;;;;;;;3.20;1.92;;;;;;;;;;10380173;28;20045;-77
2023/01/06 19:46:38;;;;;;;2.40;1.30;;;;;;;;;;10393366;28;20025;-78
2023/01/06 19:51:42;;;;;;;3.65;1.83;;;;;;;;;;10371954;28;20061;-75
2023/01/06 19:56:44;;;;;;;8.73;2.50;;;;;;;;;;10389276;28;20183;-76
2023/01/06 20:01:53;;;;;;;1.70;1.33;;;;;;;;;;10388651;28;20054;-76
2023/01/06 20:07:00;;;;;;;6.13;1.77;;;;;;;;;;10405919;28;20046;-76
2023/01/06 20:17:23;;;;;;;4.78;1.45;;;;;;;;;;10376798;28;20070;-78
2023/01/06 20:22:38;;;;;;;3.67;1.95;;;;;;;;;;10382172;28;20050;-75
2023/01/06 20:27:49;;;;;;;4.50;2.15;;;;;;;;;;10380424;28;20050;-77
2023/01/06 20:32:53;;;;;;;1.90;1.30;;;;;;;;;;10377320;28;20495;-74
2023/01/06 20:38:03;;;;;;;5.15;2.28;;;;;;;;;;10380261;28;20112;-75
2023/01/06 20:43:09;;;;;;;1.65;0.82;;;;;;;;;;10377898;28;20360;-76
2023/01/06 20:48:16;;;;;;;1.20;0.80;;;;;;;;;;10375338;28;20050;-75
2023/01/06 20:53:26;;;;;;;4.07;1.55;;;;;;;;;;10377270;28;20041;-76
2023/01/06 20:58:40;;;;;;;2.80;1.73;;;;;;;;;;10370667;28;20121;-76
2023/01/06 21:03:46;;;;;;;3.00;1.77;;;;;;;;;;10373029;28;20092;-75
2023/01/06 21:08:55;;;;;;;4.10;2.00;;;;;;;;;;10364780;28;20104;-76
2023/01/06 21:13:59;;;;;;;4.72;2.30;;;;;;;;;;10368099;28;20340;-74
2023/01/06 21:19:03;;;;;;;1.35;1.17;;;;;;;;;;10350345;28;20462;-75
2023/01/06 21:24:08;;;;;;;4.28;2.20;;;;;;;;;;10362192;28;20137;-75
2023/01/06 21:29:28;;;;;;;2.15;1.52;;;;;;;;;;10364845;28;20038;-75
2023/01/06 21:34:33;;;;;;;6.38;2.95;;;;;;;;;;10357025;28;20113;-76
2023/01/06 21:39:46;;;;;;;4.95;1.58;;;;;;;;;;10362535;28;20045;-76
2023/01/06 21:44:55;;;;;;;2.92;1.77;;;;;;;;;;10371322;28;20052;-75
2023/01/06 21:50:07;;;;;;;10.93;3.22;;;;;;;;;;10358475;28;20050;-75
2023/01/06 21:55:24;;;;;;;6.75;2.25;;;;;;;;;;10334758;28;20046;-76
2023/01/06 22:00:28;;;;;;;2.08;1.10;;;;;;;;;;10347854;28;20062;-76
2023/01/06 22:05:41;;;;;;;12.25;5.13;;;;;;;;;;10356898;28;20042;-76
2023/01/06 22:10:50;;;;;;;4.47;2.05;;;;;;;;;;10346042;28;20546;-78
2023/01/06 22:16:00;;;;;;;4.35;2.55;;;;;;;;;;10362540;28;20416;-76
2023/01/06 22:21:06;;;;;;;2.13;1.00;;;;;;;;;;10361008;28;20037;-75
2023/01/06 22:26:14;;;;;;;3.45;1.95;;;;;;;;;;10376937;28;20042;-75
2023/01/06 22:31:17;;;;;;;2.17;1.20;;;;;;;;;;10347049;28;20057;-74
2023/01/06 22:36:22;;;;;;;3.88;2.05;;;;;;;;;;10361330;28;20049;-75
2023/01/06 22:41:32;;;;;;;4.80;1.90;;;;;;;;;;10349810;28;20042;-76
2023/01/06 22:46:37;;;;;;;6.00;2.25;;;;;;;;;;10357082;28;20075;-74
2023/01/06 22:51:43;;;;;;;3.53;1.35;;;;;;;;;;10360626;28;20053;-75
2023/01/06 22:56:48;;;;;;;6.07;2.53;;;;;;;;;;10362191;28;20056;-76
2023/01/06 23:01:55;;;;;;;4.47;2.30;;;;;;;;;;10372442;28;20084;-76
2023/01/06 23:07:00;;;;;;;3.83;2.05;;;;;;;;;;10350052;28;20049;-76
2023/01/06 23:12:20;;;;;;;4.18;1.85;;;;;;;;;;10350284;28;20042;-77
2023/01/06 23:17:43;;;;;;;3.95;1.80;;;;;;;;;;10357699;28;20125;-76
2023/01/06 23:28:15;;;;;;;2.95;1.30;;;;;;;;;;10600247;27;20403;-76
2023/01/06 23:33:18;;;;;;;;;;;;;;;;;;10559592;27;20119;-76
2023/01/06 23:38:20;;;;;;;4.38;2.13;;;;;;;;;;10564493;28;20443;-76
2023/01/06 23:43:24;;;;;;;3.45;1.33;;;;;;;;;;10554544;28;20036;-77
2023/01/06 23:48:29;;;;;;;5.43;2.45;;;;;;;;;;10559580;28;20056;-75
2023/01/06 23:53:32;;;;;;;4.30;2.15;;;;;;;;;;10546209;28;20115;-76
2023/01/06 23:58:37;;;;;;;3.55;1.83;;;;;;;;;;10550176;28;20565;-74
